Time;durP1;ratioP1;P1;durP2;ratioP2;P2;SDS_P1;SDS_P2;PMS_P1;PMS_P2;Temp;Humidity;BMP_temperature;BMP_pressure;BME280_temperature;BME280_humidity;BME280_pressure;Samples;Min_cycle;Max_cycle;Signal;HPM_P1;HPM_P2
2023/12/26 00:02:16;;;;;;;0.87;0.30;;;13.40;99.90;;;;;;5105241;28;20446;-85
2023/12/26 00:04:54;;;;;;;0.70;0.40;;;13.50;99.90;;;;;;5108290;28;20475;-85
2023/12/26 00:07:41;;;;;;;0.30;0.30;;;13.50;99.90;;;;;;5108127;28;20917;-87
2023/12/26 00:10:44;;;;;;;0.30;0.30;;;13.40;99.90;;;;;;5093621;28;20440;-85
2023/12/26 00:13:31;;;;;;;0.30;0.30;;;13.30;99.90;;;;;;5107844;28;20445;-85
2023/12/26 00:16:20;;;;;;;0.30;0.30;;;13.30;99.90;;;;;;5085119;28;20511;-83
2023/12/26 00:19:24;;;;;;;0.40;0.40;;;13.20;99.90;;;;;;5112063;28;20439;-85
2023/12/26 00:22:22;;;;;;;0.30;0.30;;;13.30;99.90;;;;;;5108066;28;20460;-83
2023/12/26 00:27:54;;;;;;;0.40;0.40;;;13.30;99.90;;;;;;5064056;28;20544;-87
2023/12/26 00:30:42;;;;;;;0.40;0.40;;;13.30;99.90;;;;;;5052553;28;20512;-85
2023/12/26 00:38:01;;;;;;;0.47;0.40;;;13.20;99.90;;;;;;5051169;28;20454;-85
2023/12/26 00:41:09;;;;;;;0.73;0.37;;;13.10;99.90;;;;;;5064620;28;20472;-83
2023/12/26 00:43:47;;;;;;;0.90;0.40;;;13.10;99.90;;;;;;5045770;28;20886;-84
2023/12/26 00:50:01;;;;;;;0.40;0.40;;;13.10;99.90;;;;;;5070507;28;20447;-85
2023/12/26 00:53:05;;;;;;;0.50;0.40;;;13.20;99.90;;;;;;5071568;28;20479;-84
2023/12/26 00:56:22;;;;;;;0.40;0.40;;;13.10;99.90;;;;;;5065011;28;20479;-87
2023/12/26 01:00:12;;;;;;;1.23;0.30;;;13.60;99.90;;;;;;5075583;28;20449;-83
2023/12/26 01:02:52;;;;;;;0.40;0.40;;;13.40;99.90;;;;;;4990656;28;20563;-86
2023/12/26 01:05:40;;;;;;;1.07;0.50;;;13.60;99.90;;;;;;5056468;28;20472;-85
2023/12/26 01:08:39;;;;;;;0.40;0.40;;;13.30;99.90;;;;;;5050705;28;20481;-87
2023/12/26 01:11:49;;;;;;;0.50;0.40;;;13.40;99.90;;;;;;5051269;28;20437;-85
2023/12/26 01:14:41;;;;;;;0.40;0.40;;;13.10;99.90;;;;;;5056095;28;20610;-87
2023/12/26 01:17:25;;;;;;;1.10;0.50;;;13.50;99.90;;;;;;5068450;28;20456;-85
2023/12/26 01:20:07;;;;;;;0.50;0.50;;;13.30;99.90;;;;;;5054049;28;20448;-85
2023/12/26 01:22:50;;;;;;;1.17;0.70;;;13.30;99.90;;;;;;5053514;28;20449;-84
2023/12/26 01:25:30;;;;;;;0.40;0.40;;;13.10;99.90;;;;;;5047136;28;20534;-86
2023/12/26 01:28:19;;;;;;;0.50;0.40;;;13.00;99.90;;;;;;5051094;28;20511;-85
2023/12/26 01:30:54;;;;;;;0.83;0.40;;;13.00;99.90;;;;;;5051810;28;20449;-83
2023/12/26 01:36:42;;;;;;;0.40;0.33;;;12.90;99.90;;;;;;5029995;28;20479;-84
2023/12/26 01:39:37;;;;;;;1.70;0.43;;;13.00;99.90;;;;;;5019076;28;20439;-85
2023/12/26 01:42:55;;;;;;;0.60;0.43;;;13.00;99.90;;;;;;5025493;28;20438;-86
2023/12/26 01:45:39;;;;;;;0.50;0.30;;;12.90;99.90;;;;;;5020188;28;20482;-84
2023/12/26 01:48:32;;;;;;;1.07;0.40;;;12.90;99.90;;;;;;4991882;28;20603;-84
2023/12/26 01:51:58;;;;;;;;;;;;;;;;;;;;;
2023/12/26 01:55:03;;;;;;;0.70;0.40;;;12.90;99.90;;;;;;5028061;28;20470;-85
2023/12/26 02:01:05;;;;;;;0.40;0.40;;;13.00;99.90;;;;;;5008377;28;20920;-84
2023/12/26 02:04:09;;;;;;;0.73;0.40;;;13.00;99.90;;;;;;5011255;28;20421;-84
2023/12/26 02:07:10;;;;;;;0.40;0.40;;;12.90;99.90;;;;;;5025634;28;20427;-84
2023/12/26 02:13:23;;;;;;;0.60;0.40;;;13.00;99.90;;;;;;5027011;28;20485;-85
2023/12/26 02:16:21;;;;;;;2.20;0.43;;;12.80;99.90;;;;;;5011174;28;20471;-85
2023/12/26 02:19:14;;;;;;;0.40;0.40;;;12.80;99.90;;;;;;5026627;28;20504;-84
2023/12/26 02:22:35;;;;;;;0.60;0.50;;;12.80;99.90;;;;;;5003260;28;20442;-85
2023/12/26 02:25:20;;;;;;;0.60;0.40;;;12.80;99.90;;;;;;5009152;28;20910;-85
2023/12/26 02:28:29;;;;;;;0.63;0.40;;;12.70;99.90;;;;;;5010790;28;20501;-85
2023/12/26 02:31:16;;;;;;;0.40;0.30;;;12.70;99.90;;;;;;5025729;28;20450;-84
2023/12/26 02:36:57;;;;;;;0.50;0.40;;;12.80;99.90;;;;;;5005146;28;20482;-84
2023/12/26 02:39:44;;;;;;;1.33;0.50;;;12.70;99.90;;;;;;5005649;28;20443;-85
2023/12/26 02:45:49;;;;;;;0.60;0.40;;;12.60;99.90;;;;;;4975320;28;20443;-85
2023/12/26 02:48:57;;;;;;;0.67;0.50;;;12.60;99.90;;;;;;5001068;28;20478;-85
2023/12/26 02:51:35;;;;;;;0.30;0.30;;;12.70;99.90;;;;;;4991514;28;20500;-83
2023/12/26 02:54:24;;;;;;;0.50;0.50;;;12.70;99.90;;;;;;4990032;28;20475;-86
2023/12/26 02:57:14;;;;;;;0.40;0.40;;;12.60;99.90;;;;;;5000493;28;20448;-83
2023/12/26 03:02:48;;;;;;;0.93;0.47;;;12.50;99.90;;;;;;5017483;28;20511;-84
2023/12/26 03:09:02;;;;;;;0.40;0.40;;;12.50;99.90;;;;;;5006644;28;20485;-84
2023/12/26 03:15:26;;;;;;;0.60;0.60;;;12.50;99.90;;;;;;4939913;29;20439;-84
2023/12/26 03:18:07;;;;;;;0.43;0.40;;;12.50;99.90;;;;;;4928034;29;20509;-84
2023/12/26 03:20:54;;;;;;;0.80;0.40;;;12.40;99.90;;;;;;4932361;29;20598;-84
2023/12/26 03:23:42;;;;;;;0.40;0.40;;;12.30;99.90;;;;;;4927195;29;20864;-85
2023/12/26 03:26:29;;;;;;;0.80;0.60;;;12.30;99.90;;;;;;4918978;29;21024;-85
2023/12/26 03:29:11;;;;;;;0.40;0.30;;;12.40;99.90;;;;;;4935298;28;20481;-85
2023/12/26 03:32:10;;;;;;;2.67;0.50;;;12.30;99.90;;;;;;4979264;28;20495;-85
2023/12/26 03:34:48;;;;;;;0.70;0.40;;;12.30;99.90;;;;;;4996749;28;20481;-84
2023/12/26 03:37:24;;;;;;;1.03;0.43;;;12.20;99.90;;;;;;4996882;28;20465;-87
2023/12/26 03:40:13;;;;;;;0.60;0.40;;;12.20;99.90;;;;;;5007452;28;20986;-85
2023/12/26 03:42:50;;;;;;;1.07;0.70;;;12.10;99.90;;;;;;4999209;28;20533;-84
2023/12/26 03:45:21;;;;;;;0.30;0.30;;;12.20;99.90;;;;;;5008744;28;20478;-84
2023/12/26 03:48:08;;;;;;;0.30;0.30;;;12.30;99.90;;;;;;5004752;28;20483;-84
2023/12/26 03:50:51;;;;;;;0.63;0.40;;;12.20;99.90;;;;;;5003431;28;20471;-86
2023/12/26 03:53:33;;;;;;;0.50;0.40;;;12.40;99.90;;;;;;4995514;28;20456;-82
2023/12/26 03:56:07;;;;;;;0.60;0.40;;;12.30;99.90;;;;;;5006638;28;20485;-83
2023/12/26 03:59:01;;;;;;;0.60;0.40;;;12.30;99.90;;;;;;5018221;28;20517;-84
2023/12/26 04:01:37;;;;;;;1.43;0.50;;;12.30;99.90;;;;;;4995851;28;20455;-85
2023/12/26 04:04:13;;;;;;;0.40;0.40;;;12.20;99.90;;;;;;5006200;28;20482;-86
2023/12/26 04:06:46;;;;;;;1.77;0.90;;;12.10;99.90;;;;;;5012145;28;20455;-85
2023/12/26 04:09:36;;;;;;;0.30;0.30;;;12.20;99.90;;;;;;4990498;28;20854;-85
2023/12/26 04:12:19;;;;;;;0.43;0.37;;;12.10;99.90;;;;;;5008348;28;20565;-85
2023/12/26 04:15:09;;;;;;;0.60;0.50;;;12.20;99.90;;;;;;4998909;28;20472;-85
2023/12/26 04:18:09;;;;;;;1.33;1.00;;;12.10;99.90;;;;;;4989606;28;20427;-87
2023/12/26 04:20:52;;;;;;;0.30;0.30;;;12.10;99.90;;;;;;4987238;28;20460;-85
2023/12/26 04:23:35;;;;;;;0.70;0.40;;;12.10;99.90;;;;;;4996293;28;20530;-85
2023/12/26 04:26:24;;;;;;;0.50;0.40;;;12.10;99.90;;;;;;5069246;22;20476;-85
2023/12/26 04:29:07;;;;;;;2.93;0.43;;;12.10;99.90;;;;;;5021052;28;20619;-86
2023/12/26 04:31:47;;;;;;;1.60;0.40;;;12.10;99.90;;;;;;5032114;28;20448;-84
2023/12/26 04:34:24;;;;;;;0.40;0.40;;;12.10;99.90;;;;;;5046226;28;20980;-85
2023/12/26 04:40:42;;;;;;;0.60;0.40;;;12.10;99.90;;;;;;5032591;28;20413;-84
2023/12/26 04:43:50;;;;;;;0.60;0.43;;;12.10;99.90;;;;;;5112634;27;1304629;-88
2023/12/26 04:46:29;;;;;;;0.50;0.50;;;12.00;99.90;;;;;;5128802;28;20458;-86
2023/12/26 04:49:06;;;;;;;0.40;0.40;;;12.00;99.90;;;;;;5122017;28;20448;-84
2023/12/26 04:51:50;;;;;;;0.40;0.40;;;12.00;99.90;;;;;;5112635;28;20444;-84
2023/12/26 04:54:46;;;;;;;0.40;0.40;;;12.00;99.90;;;;;;5128402;28;20474;-86
2023/12/26 04:57:20;;;;;;;0.50;0.50;;;12.00;99.90;;;;;;5119794;28;20537;-85
2023/12/26 05:00:15;;;;;;;0.40;0.40;;;12.00;99.90;;;;;;5107394;28;20426;-85
2023/12/26 05:02:53;;;;;;;0.60;0.60;;;12.00;99.90;;;;;;5107504;28;20484;-86
2023/12/26 05:05:40;;;;;;;0.50;0.50;;;12.00;99.90;;;;;;5106009;28;20454;-85
2023/12/26 05:08:23;;;;;;;0.50;0.50;;;12.10;99.90;;;;;;5116755;28;20784;-86
2023/12/26 05:11:28;;;;;;;0.73;0.67;;;12.10;99.90;;;;;;5111143;28;20523;-84
2023/12/26 05:14:12;;;;;;;0.93;0.50;;;12.10;99.90;;;;;;5131952;28;20469;-85
2023/12/26 05:16:56;;;;;;;2.73;0.67;;;12.00;99.90;;;;;;5115924;28;20445;-86
2023/12/26 05:19:41;;;;;;;0.50;0.50;;;12.00;99.90;;;;;;5101281;28;20451;-87
2023/12/26 05:22:21;;;;;;;2.27;0.70;;;12.00;99.90;;;;;;5118658;28;20475;-85
2023/12/26 05:25:15;;;;;;;0.80;0.73;;;12.00;99.90;;;;;;5102063;28;20459;-85
2023/12/26 05:28:02;;;;;;;1.80;0.70;;;12.00;99.90;;;;;;5116486;28;21114;-85
2023/12/26 05:30:46;;;;;;;1.73;0.70;;;12.00;99.90;;;;;;5094533;28;20838;-85
2023/12/26 05:33:19;;;;;;;0.73;0.70;;;12.00;99.90;;;;;;5112490;28;20452;-85
2023/12/26 05:35:54;;;;;;;1.10;0.63;;;12.00;99.90;;;;;;5121042;28;20465;-83
2023/12/26 05:38:25;;;;;;;0.60;0.60;;;12.00;99.90;;;;;;5111170;28;20448;-84
2023/12/26 05:40:53;;;;;;;0.60;0.57;;;12.10;99.90;;;;;;5127678;28;20452;-84
2023/12/26 05:43:25;;;;;;;1.80;0.70;;;12.00;99.90;;;;;;5121571;28;20505;-91
2023/12/26 05:45:56;;;;;;;0.90;0.70;;;12.00;99.90;;;;;;5110764;28;20469;-86
2023/12/26 05:48:30;;;;;;;0.67;0.67;;;12.00;99.90;;;;;;5112673;28;20764;-85
2023/12/26 05:51:06;;;;;;;0.80;0.80;;;12.00;99.90;;;;;;5113856;28;20446;-87
2023/12/26 05:53:44;;;;;;;3.73;0.80;;;12.00;99.90;;;;;;5117145;28;20443;-85
2023/12/26 05:56:30;;;;;;;5.30;1.73;;;12.00;99.90;;;;;;5111343;28;20447;-85
2023/12/26 05:59:01;;;;;;;1.67;0.60;;;11.90;99.90;;;;;;5112468;28;20538;-85
2023/12/26 06:01:29;;;;;;;2.50;0.80;;;11.90;99.90;;;;;;5107611;28;20455;-86
2023/12/26 06:04:02;;;;;;;1.33;0.70;;;11.90;99.90;;;;;;5099116;28;20993;-85
2023/12/26 06:06:36;;;;;;;1.17;0.80;;;12.00;99.90;;;;;;5096232;28;20447;-84
2023/12/26 06:09:07;;;;;;;3.70;1.87;;;12.00;99.90;;;;;;5096420;28;20445;-85
2023/12/26 06:11:44;;;;;;;3.33;0.93;;;12.00;99.90;;;;;;5101085;28;20450;-85
2023/12/26 06:14:14;;;;;;;1.47;0.77;;;12.00;99.90;;;;;;5092451;28;20466;-84
2023/12/26 06:16:52;;;;;;;1.07;0.70;;;12.00;99.90;;;;;;5098976;28;20477;-85
2023/12/26 06:19:27;;;;;;;0.70;0.70;;;12.00;99.90;;;;;;5108252;28;20450;-84
2023/12/26 06:21:56;;;;;;;2.10;1.00;;;12.00;99.90;;;;;;5091344;28;20528;-83
2023/12/26 06:24:26;;;;;;;1.13;0.80;;;12.00;99.90;;;;;;5103656;28;20556;-84
2023/12/26 06:26:55;;;;;;;1.13;1.00;;;12.00;99.90;;;;;;5115981;28;20450;-84
2023/12/26 06:29:27;;;;;;;0.90;0.90;;;12.00;99.90;;;;;;5114797;28;20469;-86
2023/12/26 06:31:57;;;;;;;3.13;1.00;;;12.00;99.90;;;;;;5107311;28;20538;-84
2023/12/26 06:34:25;;;;;;;1.90;0.97;;;12.00;99.90;;;;;;5095044;28;20558;-84
2023/12/26 06:36:57;;;;;;;1.13;1.00;;;12.00;99.90;;;;;;5108117;28;20454;-87
2023/12/26 06:39:31;;;;;;;2.90;0.90;;;12.00;99.90;;;;;;5097135;28;20447;-86
2023/12/26 06:42:11;;;;;;;3.20;0.90;;;12.00;99.90;;;;;;5104127;28;20472;-85
2023/12/26 06:44:40;;;;;;;0.87;0.87;;;11.90;99.90;;;;;;5103959;28;20988;-85
2023/12/26 06:47:18;;;;;;;2.73;0.93;;;11.90;99.90;;;;;;5091787;28;20451;-84
2023/12/26 06:49:49;;;;;;;2.00;1.20;;;12.10;99.90;;;;;;5102098;28;20528;-85
2023/12/26 06:52:23;;;;;;;3.57;0.80;;;12.00;99.90;;;;;;5102027;28;20447;-87
2023/12/26 06:54:52;;;;;;;0.90;0.73;;;12.00;99.90;;;;;;5105552;28;20481;-86
2023/12/26 06:57:19;;;;;;;5.90;0.83;;;12.00;99.90;;;;;;5098810;28;20485;-85
2023/12/26 06:59:53;;;;;;;1.53;1.17;;;12.00;99.90;;;;;;5104346;28;20453;-85
2023/12/26 07:02:27;;;;;;;2.30;1.17;;;12.00;99.90;;;;;;5096927;28;20474;-85
2023/12/26 07:05:07;;;;;;;1.83;0.93;;;11.90;99.90;;;;;;5096295;28;20473;-85
2023/12/26 07:07:41;;;;;;;1.50;1.00;;;12.00;99.90;;;;;;5093059;28;20454;-85
2023/12/26 07:10:12;;;;;;;3.20;0.87;;;11.90;99.90;;;;;;5105938;28;20438;-85
2023/12/26 07:12:39;;;;;;;1.33;1.03;;;11.90;99.90;;;;;;5098107;28;20453;-84
2023/12/26 07:15:09;;;;;;;2.23;0.97;;;11.90;99.90;;;;;;5089856;28;20471;-84
2023/12/26 07:17:39;;;;;;;1.37;1.07;;;11.90;99.90;;;;;;5095877;28;20442;-85
2023/12/26 07:20:12;;;;;;;1.33;0.80;;;12.00;99.90;;;;;;5096041;28;20937;-85
2023/12/26 07:22:55;;;;;;;1.10;1.00;;;12.00;99.90;;;;;;5093431;28;20524;-86
2023/12/26 07:25:25;;;;;;;1.50;0.80;;;11.90;99.90;;;;;;5099070;28;20476;-84
2023/12/26 07:27:57;;;;;;;1.53;1.10;;;11.90;99.90;;;;;;5091272;28;20863;-84
2023/12/26 07:30:28;;;;;;;5.03;1.57;;;11.90;99.90;;;;;;5089437;28;20446;-84
2023/12/26 07:32:57;;;;;;;5.37;1.00;;;11.90;99.90;;;;;;5096382;28;20462;-85
2023/12/26 07:35:30;;;;;;;2.33;1.00;;;11.90;99.90;;;;;;5107808;28;20469;-85
2023/12/26 07:38:02;;;;;;;3.37;1.20;;;12.00;99.90;;;;;;5106746;28;20538;-85
2023/12/26 07:40:35;;;;;;;3.03;1.03;;;11.90;99.90;;;;;;5108130;28;20442;-85
2023/12/26 07:43:04;;;;;;;0.83;0.83;;;11.90;99.90;;;;;;5117430;28;20525;-86
2023/12/26 07:45:34;;;;;;;1.70;0.90;;;12.00;99.90;;;;;;5104288;28;20475;-87
2023/12/26 07:48:07;;;;;;;1.20;1.10;;;12.00;99.90;;;;;;5117022;28;20529;-84
2023/12/26 07:50:35;;;;;;;3.53;1.33;;;12.00;99.90;;;;;;5112775;28;20454;-86
2023/12/26 07:53:05;;;;;;;3.33;1.17;;;12.00;99.90;;;;;;5110911;28;20499;-84
2023/12/26 07:55:35;;;;;;;1.33;1.10;;;12.00;99.90;;;;;;5105356;28;20458;-85
2023/12/26 07:58:03;;;;;;;3.20;1.00;;;12.00;99.90;;;;;;5124887;28;20470;-85
2023/12/26 08:00:37;;;;;;;3.97;1.13;;;12.00;99.90;;;;;;5123117;28;20454;-84
2023/12/26 08:03:15;;;;;;;;;;;;;;;;;;;;;
2023/12/26 08:05:47;;;;;;;3.17;1.20;;;12.10;99.90;;;;;;5111080;28;20568;-85
2023/12/26 08:08:22;;;;;;;2.73;1.60;;;12.00;99.90;;;;;;5102628;28;20506;-86
2023/12/26 08:10:55;;;;;;;3.40;2.10;;;12.00;99.90;;;;;;5098584;28;20452;-84
2023/12/26 08:13:30;;;;;;;2.40;1.20;;;12.10;99.90;;;;;;5105619;28;20449;-86
2023/12/26 08:16:04;;;;;;;1.50;0.93;;;12.10;99.90;;;;;;5100456;28;20466;-85
2023/12/26 08:18:34;;;;;;;4.23;1.53;;;12.20;99.90;;;;;;5097044;28;20457;-83
2023/12/26 08:21:03;;;;;;;2.70;1.80;;;12.20;99.90;;;;;;5097469;28;20627;-86
2023/12/26 08:23:36;;;;;;;2.67;1.80;;;12.20;99.90;;;;;;5103751;28;20474;-87
2023/12/26 08:26:09;;;;;;;3.93;2.50;;;12.20;99.90;;;;;;5095011;28;20458;-86
2023/12/26 08:28:49;;;;;;;6.63;3.20;;;12.20;99.90;;;;;;5095659;28;20476;-87
2023/12/26 08:31:19;;;;;;;7.97;3.10;;;12.20;99.90;;;;;;5103049;28;20517;-86
2023/12/26 08:34:09;;;;;;;8.07;3.70;;;12.20;99.90;;;;;;5101951;28;20538;-86
2023/12/26 08:36:41;;;;;;;9.33;4.07;;;12.30;99.90;;;;;;5094090;28;20451;-85
2023/12/26 08:39:13;;;;;;;8.93;3.73;;;12.20;99.90;;;;;;5098650;28;20542;-86
2023/12/26 08:41:41;;;;;;;7.63;3.80;;;12.20;99.90;;;;;;5090515;28;20470;-87
2023/12/26 08:44:12;;;;;;;7.20;3.70;;;12.20;99.90;;;;;;5096243;28;20482;-86
2023/12/26 08:46:47;;;;;;;10.20;5.27;;;12.20;99.90;;;;;;5101402;28;20443;-85
2023/12/26 08:49:20;;;;;;;12.20;6.33;;;12.20;99.90;;;;;;5101640;28;20446;-84
2023/12/26 08:51:54;;;;;;;10.73;6.07;;;12.20;99.90;;;;;;5106720;28;20546;-84
2023/12/26 08:54:27;;;;;;;12.63;6.07;;;12.20;99.90;;;;;;5116892;28;20473;-83
2023/12/26 08:56:55;;;;;;;10.47;4.00;;;12.20;99.90;;;;;;5093610;28;20449;-84
2023/12/26 08:59:27;;;;;;;8.83;2.77;;;12.20;99.90;;;;;;5102389;28;20472;-85
2023/12/26 09:01:56;;;;;;;5.50;3.30;;;12.20;99.90;;;;;;5094808;28;21148;-85
2023/12/26 09:04:30;;;;;;;4.67;3.23;;;12.20;99.90;;;;;;5094022;28;20530;-86
2023/12/26 09:06:58;;;;;;;4.70;3.00;;;12.20;99.90;;;;;;5085759;28;20474;-86
2023/12/26 09:09:31;;;;;;;1.10;1.00;;;12.20;99.90;;;;;;5104077;28;21039;-87
2023/12/26 09:11:59;;;;;;;2.50;1.23;;;12.30;99.90;;;;;;5103686;28;20470;-84
2023/12/26 09:14:31;;;;;;;3.37;1.60;;;12.20;99.90;;;;;;5089604;28;20538;-83
2023/12/26 09:17:16;;;;;;;2.27;1.43;;;12.20;99.90;;;;;;5088174;28;20441;-85
2023/12/26 09:19:51;;;;;;;2.20;1.10;;;12.20;99.90;;;;;;5095867;28;20722;-85
2023/12/26 09:22:18;;;;;;;3.23;1.50;;;12.20;99.90;;;;;;5099750;28;20474;-85
2023/12/26 09:24:48;;;;;;;4.97;1.30;;;12.20;99.90;;;;;;5087118;28;20534;-85
2023/12/26 09:27:26;;;;;;;5.37;2.03;;;12.20;99.90;;;;;;5096467;28;20451;-88
2023/12/26 09:29:56;;;;;;;4.63;1.30;;;12.20;99.90;;;;;;5094476;28;20503;-85
2023/12/26 09:32:33;;;;;;;3.90;1.60;;;12.30;99.90;;;;;;5104853;28;20450;-85
2023/12/26 09:35:07;;;;;;;4.30;2.53;;;12.30;99.90;;;;;;5099290;28;20466;-86
2023/12/26 09:37:41;;;;;;;6.10;3.20;;;12.50;99.90;;;;;;5094896;28;20549;-89
2023/12/26 09:40:19;;;;;;;4.63;2.30;;;12.40;99.90;;;;;;5109650;28;20453;-90
2023/12/26 09:42:47;;;;;;;6.80;2.50;;;12.50;99.90;;;;;;5106106;28;20470;-89
2023/12/26 09:45:17;;;;;;;5.37;2.60;;;12.50;99.90;;;;;;5103160;28;20458;-90
2023/12/26 09:47:48;;;;;;;5.70;1.80;;;12.40;99.90;;;;;;5112995;28;20478;-87
2023/12/26 09:50:19;;;;;;;3.43;1.80;;;12.70;99.90;;;;;;5119236;28;20465;-85
2023/12/26 09:52:58;;;;;;;3.97;2.20;;;12.70;99.90;;;;;;5089797;28;20457;-84
2023/12/26 09:55:35;;;;;;;4.10;2.00;;;12.60;99.90;;;;;;5098054;28;20988;-84
2023/12/26 09:58:12;;;;;;;3.63;1.97;;;12.50;99.90;;;;;;5105799;28;20453;-85
2023/12/26 10:00:43;;;;;;;1.57;1.23;;;12.50;99.90;;;;;;5099672;28;20470;-84
2023/12/26 10:03:10;;;;;;;5.50;1.60;;;12.40;99.90;;;;;;5094495;28;20527;-85
2023/12/26 10:05:40;;;;;;;2.30;1.50;;;12.40;99.90;;;;;;5096617;28;20474;-85
2023/12/26 10:08:07;;;;;;;3.43;1.33;;;12.50;99.90;;;;;;5101248;28;20547;-86
2023/12/26 10:10:37;;;;;;;4.50;1.30;;;12.40;99.90;;;;;;5095434;28;20442;-86
2023/12/26 10:13:09;;;;;;;5.23;1.40;;;12.40;99.90;;;;;;5096076;28;20534;-86
2023/12/26 10:15:37;;;;;;;3.47;1.67;;;12.40;99.90;;;;;;5100230;28;20451;-85
2023/12/26 10:18:16;;;;;;;3.13;1.60;;;12.50;99.90;;;;;;5094208;28;20442;-84
2023/12/26 10:20:43;;;;;;;1.77;1.50;;;12.50;99.90;;;;;;5085952;28;20912;-84
2023/12/26 10:23:21;;;;;;;1.77;1.00;;;12.60;99.90;;;;;;5097170;28;20474;-85
2023/12/26 10:25:50;;;;;;;1.10;0.90;;;12.60;99.80;;;;;;5086068;28;20474;-85
2023/12/26 10:28:18;;;;;;;2.80;1.27;;;12.70;99.40;;;;;;5103086;28;20873;-85
2023/12/26 10:30:49;;;;;;;6.47;1.43;;;12.80;99.40;;;;;;5093351;28;20445;-84
2023/12/26 10:33:28;;;;;;;2.17;1.97;;;12.80;98.80;;;;;;5094237;28;20446;-86
2023/12/26 10:36:10;;;;;;;3.97;1.30;;;12.90;98.60;;;;;;5091325;28;20470;-84
2023/12/26 10:38:40;;;;;;;3.13;1.60;;;13.00;98.60;;;;;;5088111;28;20462;-84
2023/12/26 10:41:29;;;;;;;1.60;0.83;;;13.00;98.50;;;;;;5103120;28;20450;-83
2023/12/26 10:43:59;;;;;;;2.10;1.17;;;13.00;98.30;;;;;;5098394;28;20549;-84
2023/12/26 10:46:31;;;;;;;1.70;1.10;;;13.00;98.20;;;;;;5089306;28;20458;-85
2023/12/26 10:49:05;;;;;;;3.17;1.90;;;12.80;97.40;;;;;;5080223;28;20469;-85
2023/12/26 10:51:37;;;;;;;7.90;1.43;;;12.90;97.50;;;;;;5105798;28;20479;-84
2023/12/26 10:54:07;;;;;;;2.50;1.53;;;12.90;97.50;;;;;;5102386;28;20443;-86
2023/12/26 10:56:40;;;;;;;2.43;1.53;;;12.90;97.30;;;;;;5105947;28;20454;-85
2023/12/26 13:52:07;;;;;;;5.33;2.13;;;11.90;96.20;;;;;;5111419;28;20528;-85
2023/12/26 13:55:18;;;;;;;6.30;1.53;;;12.00;96.30;;;;;;5102735;28;20463;-84
2023/12/26 13:58:25;;;;;;;4.60;2.00;;;12.00;96.10;;;;;;5109127;28;20446;-85
2023/12/26 14:01:30;;;;;;;4.20;2.17;;;12.00;96.00;;;;;;5093683;28;20447;-84
2023/12/26 14:04:36;;;;;;;3.90;1.47;;;12.00;95.80;;;;;;5126569;28;20486;-84
2023/12/26 14:07:44;;;;;;;3.40;1.60;;;11.90;95.50;;;;;;5095008;28;20447;-85
2023/12/26 14:10:49;;;;;;;2.60;1.57;;;11.90;95.50;;;;;;5091029;28;20997;-84
2023/12/26 14:13:55;;;;;;;3.97;1.80;;;11.80;95.50;;;;;;5104653;28;20514;-86
2023/12/26 14:17:06;;;;;;;4.93;1.40;;;11.80;95.60;;;;;;5106280;28;20878;-87
2023/12/26 14:20:13;;;;;;;6.03;2.60;;;11.80;95.60;;;;;;5102394;28;20469;-86
2023/12/26 14:23:20;;;;;;;8.40;1.80;;;11.80;95.60;;;;;;5096652;28;20452;-85
2023/12/26 14:26:30;;;;;;;6.67;2.87;;;11.80;95.90;;;;;;5100732;28;20985;-85
2023/12/26 14:29:37;;;;;;;6.77;1.80;;;11.90;95.70;;;;;;5096440;28;20454;-85
2023/12/26 14:32:43;;;;;;;7.13;1.57;;;11.80;95.70;;;;;;5114279;28;20443;-86
2023/12/26 14:35:49;;;;;;;6.03;2.50;;;11.90;95.80;;;;;;5103601;28;20477;-86
2023/12/26 14:38:56;;;;;;;6.17;2.00;;;11.90;95.80;;;;;;5097173;28;20454;-85
2023/12/26 14:42:06;;;;;;;4.53;1.53;;;11.80;95.90;;;;;;5090582;28;20454;-84
2023/12/26 14:45:14;;;;;;;2.60;1.27;;;11.80;96.20;;;;;;5119214;28;21007;-85
2023/12/26 14:48:19;;;;;;;3.27;1.90;;;11.80;96.30;;;;;;5099943;28;20527;-85
2023/12/26 14:51:25;;;;;;;4.80;1.60;;;11.80;96.20;;;;;;5092435;28;20449;-86
2023/12/26 14:57:15;;;;;;;7.37;1.90;;;11.70;96.40;;;;;;5062277;22;20520;-86
2023/12/26 15:00:22;;;;;;;2.20;1.40;;;11.70;96.40;;;;;;5036482;28;20863;-84
2023/12/26 15:03:13;;;;;;;6.10;2.03;;;11.60;96.50;;;;;;5030155;28;20487;-84
2023/12/26 15:05:45;;;;;;;3.50;1.50;;;11.60;96.40;;;;;;5045815;28;20598;-86
2023/12/26 15:08:18;;;;;;;4.40;2.20;;;11.60;96.40;;;;;;5029218;28;20454;-87
2023/12/26 15:11:36;;;;;;;5.03;2.03;;;11.70;96.40;;;;;;5031223;28;20450;-86
2023/12/26 15:14:21;;;;;;;6.00;2.40;;;11.70;96.40;;;;;;4993272;28;20479;-87
2023/12/26 15:17:03;;;;;;;3.03;1.80;;;11.70;96.30;;;;;;5028056;28;20450;-86
2023/12/26 15:19:39;;;;;;;5.80;2.50;;;11.60;95.90;;;;;;5030680;28;20446;-86
2023/12/26 15:22:15;;;;;;;2.53;1.77;;;11.70;95.80;;;;;;5027536;28;20504;-87
2023/12/26 15:24:50;;;;;;;5.57;1.60;;;11.70;95.70;;;;;;5024992;28;20493;-85
2023/12/26 15:27:25;;;;;;;5.73;1.67;;;11.70;95.60;;;;;;5025592;28;20494;-85
2023/12/26 15:30:16;;;;;;;6.33;1.60;;;11.70;95.50;;;;;;5039035;28;20470;-85
2023/12/26 15:33:05;;;;;;;3.83;1.57;;;11.60;95.40;;;;;;5033343;28;20480;-84
2023/12/26 15:35:43;;;;;;;2.43;1.57;;;11.70;95.40;;;;;;5043584;28;20479;-86
2023/12/26 15:38:21;;;;;;;5.10;1.60;;;11.60;95.40;;;;;;5047061;28;20835;-85
2023/12/26 15:41:06;;;;;;;6.00;1.53;;;11.60;95.50;;;;;;5046542;28;20488;-86
2023/12/26 15:44:02;;;;;;;;;;;;;;;;;;;;;
2023/12/26 15:46:38;;;;;;;8.07;1.80;;;11.60;95.50;;;;;;5071248;28;20476;-83
2023/12/26 15:49:32;;;;;;;1.50;1.40;;;11.50;95.30;;;;;;5054771;28;20437;-84
2023/12/26 15:52:09;;;;;;;4.57;2.10;;;11.50;95.40;;;;;;5044175;28;20522;-83
2023/12/26 15:54:42;;;;;;;10.90;3.23;;;11.60;95.50;;;;;;5057354;28;20468;-83
2023/12/26 15:57:12;;;;;;;11.43;6.40;;;11.60;95.50;;;;;;5056444;28;20569;-85
2023/12/26 15:59:59;;;;;;;9.30;3.10;;;11.50;95.50;;;;;;5046965;28;20433;-85
2023/12/26 16:02:34;;;;;;;7.30;3.43;;;11.50;95.60;;;;;;5040943;28;20457;-84
2023/12/26 16:05:09;;;;;;;6.17;1.50;;;11.40;95.70;;;;;;5051370;28;20476;-84
2023/12/26 16:07:40;;;;;;;8.80;2.33;;;11.40;95.80;;;;;;5070589;28;20479;-84
2023/12/26 16:10:12;;;;;;;10.23;3.10;;;11.40;95.90;;;;;;5043976;28;20452;-83
2023/12/26 16:12:55;;;;;;;3.87;1.67;;;11.40;96.00;;;;;;5063513;28;20440;-89
2023/12/26 16:15:33;;;;;;;5.60;1.60;;;11.40;96.00;;;;;;5078659;23;20472;-86
2023/12/26 16:26:52;;;;;;;7.80;1.97;;;11.30;96.00;;;;;;5053954;28;20974;-84
2023/12/26 16:29:38;;;;;;;3.40;1.40;;;11.30;96.10;;;;;;5027036;28;20462;-84
2023/12/26 16:32:19;;;;;;;2.40;1.40;;;11.30;96.00;;;;;;5033901;28;20450;-84
2023/12/26 16:35:10;;;;;;;6.70;1.53;;;11.40;96.20;;;;;;5030990;28;20457;-86
2023/12/26 16:37:44;;;;;;;2.53;1.40;;;11.30;96.10;;;;;;5042095;28;20781;-86
2023/12/26 16:40:25;;;;;;;4.23;1.90;;;11.20;96.20;;;;;;5044086;28;20452;-85
2023/12/26 16:43:13;;;;;;;6.43;1.83;;;11.20;96.30;;;;;;5047099;28;20457;-84
2023/12/26 16:46:24;;;;;;;6.77;1.60;;;11.20;96.40;;;;;;5049100;28;20494;-86
2023/12/26 16:49:14;;;;;;;4.53;1.40;;;11.10;96.40;;;;;;5032021;28;20500;-85
2023/12/26 16:52:00;;;;;;;5.27;1.67;;;11.20;96.50;;;;;;5045187;28;20471;-86
2023/12/26 16:54:45;;;;;;;2.90;1.70;;;11.20;96.60;;;;;;5041958;28;20461;-85
2023/12/26 16:57:29;;;;;;;3.83;2.10;;;11.10;96.60;;;;;;5048025;28;20488;-84
2023/12/26 17:00:21;;;;;;;4.37;2.20;;;11.10;96.60;;;;;;5042154;28;20454;-86
2023/12/26 17:03:19;;;;;;;4.57;2.07;;;11.10;96.70;;;;;;5040619;28;20445;-86
2023/12/26 17:05:59;;;;;;;8.13;1.97;;;11.00;96.70;;;;;;5033785;28;20482;-84
2023/12/26 17:08:42;;;;;;;5.03;2.37;;;11.00;96.80;;;;;;5031788;28;20438;-84
2023/12/26 17:11:26;;;;;;;7.00;1.73;;;11.00;96.90;;;;;;5046940;28;20516;-83
2023/12/26 17:14:05;;;;;;;5.83;2.77;;;11.00;96.90;;;;;;5038019;28;20441;-84
2023/12/26 17:17:03;;;;;;;7.47;2.27;;;11.00;97.00;;;;;;5032192;28;20431;-86
2023/12/26 17:19:47;;;;;;;8.00;2.83;;;11.00;97.10;;;;;;5016597;28;20914;-85
2023/12/26 17:22:29;;;;;;;2.33;1.80;;;11.00;97.10;;;;;;5037244;28;20431;-84
2023/12/26 17:25:15;;;;;;;6.70;1.77;;;11.00;97.10;;;;;;5046596;28;20488;-85
2023/12/26 17:28:12;;;;;;;7.77;3.10;;;11.10;97.10;;;;;;5060665;28;20800;-84
2023/12/26 17:31:05;;;;;;;8.40;2.80;;;11.00;97.10;;;;;;5014307;28;20453;-85
2023/12/26 17:33:51;;;;;;;4.40;2.00;;;11.00;97.20;;;;;;5024306;28;20446;-83
2023/12/26 17:36:28;;;;;;;8.53;2.27;;;11.00;97.20;;;;;;5026686;28;20472;-86
2023/12/26 17:39:15;;;;;;;5.60;2.13;;;11.00;97.20;;;;;;5029621;28;20480;-84
2023/12/26 17:42:14;;;;;;;5.90;2.60;;;11.00;97.20;;;;;;5023334;28;20481;-84
2023/12/26 17:45:13;;;;;;;13.77;2.83;;;11.10;97.10;;;;;;5026749;28;20477;-84
2023/12/26 17:47:49;;;;;;;8.60;2.27;;;11.10;97.00;;;;;;5044032;28;20457;-86
2023/12/26 17:50:23;;;;;;;10.03;3.27;;;11.00;97.10;;;;;;5020990;28;20519;-85
2023/12/26 17:56:22;;;;;;;7.57;2.30;;;11.10;97.20;;;;;;5046424;28;20593;-86
2023/12/26 17:59:13;;;;;;;7.30;2.23;;;11.20;97.00;;;;;;5033872;28;20446;-86